sensor_id;sensor_type;location;lat;lon;timestamp;P1;durP1;ratioP1;P2;durP2;ratioP2
60372;SDS011;46216;52.220;5.134;2022-12-07T00:00:13;9.52;;;5.55;;
60372;SDS011;46216;52.220;5.134;2022-12-07T00:02:39;13.55;;;5.50;;
60372;SDS011;46216;52.220;5.134;2022-12-07T00:05:05;12.07;;;5.10;;
60372;SDS011;46216;52.220;5.134;2022-12-07T00:07:30;33.50;;;10.52;;
60372;SDS011;46216;52.220;5.134;2022-12-07T00:09:55;27.58;;;8.70;;
60372;SDS011;46216;52.220;5.134;2022-12-07T00:12:21;15.35;;;6.28;;
60372;SDS011;46216;52.220;5.134;2022-12-07T00:14:46;16.05;;;6.95;;
60372;SDS011;46216;52.220;5.134;2022-12-07T00:17:11;12.23;;;5.57;;
60372;SDS011;46216;52.220;5.134;2022-12-07T00:19:37;14.32;;;5.63;;
60372;SDS011;46216;52.220;5.134;2022-12-07T00:22:02;10.45;;;4.30;;
60372;SDS011;46216;52.220;5.134;2022-12-07T00:24:27;10.20;;;4.43;;
60372;SDS011;46216;52.220;5.134;2022-12-07T00:26:52;10.38;;;4.07;;
60372;SDS011;46216;52.220;5.134;2022-12-07T00:29:19;14.60;;;4.68;;
60372;SDS011;46216;52.220;5.134;2022-12-07T00:31:46;12.30;;;4.45;;
60372;SDS011;46216;52.220;5.134;2022-12-07T00:34:14;13.18;;;3.70;;
60372;SDS011;46216;52.220;5.134;2022-12-07T00:36:41;14.27;;;3.80;;
60372;SDS011;46216;52.220;5.134;2022-12-07T00:39:07;9.75;;;3.97;;
60372;SDS011;46216;52.220;5.134;2022-12-07T00:41:32;17.40;;;5.57;;
60372;SDS011;46216;52.220;5.134;2022-12-07T00:43:57;17.25;;;4.95;;
60372;SDS011;46216;52.220;5.134;2022-12-07T00:46:23;13.10;;;5.63;;
60372;SDS011;46216;52.220;5.134;2022-12-07T00:48:50;19.67;;;5.30;;
60372;SDS011;46216;52.220;5.134;2022-12-07T00:51:16;20.27;;;5.93;;
60372;SDS011;46216;52.220;5.134;2022-12-07T00:53:43;14.82;;;4.13;;
60372;SDS011;46216;52.220;5.134;2022-12-07T00:56:10;11.95;;;3.78;;
60372;SDS011;46216;52.220;5.134;2022-12-07T00:58:37;13.38;;;5.00;;
60372;SDS011;46216;52.220;5.134;2022-12-07T01:01:03;17.40;;;5.90;;
60372;SDS011;46216;52.220;5.134;2022-12-07T01:03:30;25.80;;;7.68;;
60372;SDS011;46216;52.220;5.134;2022-12-07T01:05:56;33.88;;;9.82;;
60372;SDS011;46216;52.220;5.134;2022-12-07T01:08:23;29.08;;;8.68;;
60372;SDS011;46216;52.220;5.134;2022-12-07T01:11:00;32.42;;;8.75;;
60372;SDS011;46216;52.220;5.134;2022-12-07T01:13:30;16.30;;;5.72;;
60372;SDS011;46216;52.220;5.134;2022-12-07T01:15:57;17.85;;;6.22;;
60372;SDS011;46216;52.220;5.134;2022-12-07T01:18:24;17.58;;;5.35;;
60372;SDS011;46216;52.220;5.134;2022-12-07T01:20:57;20.25;;;6.53;;
60372;SDS011;46216;52.220;5.134;2022-12-07T01:23:25;15.15;;;4.30;;
60372;SDS011;46216;52.220;5.134;2022-12-07T01:25:54;16.88;;;5.25;;
60372;SDS011;46216;52.220;5.134;2022-12-07T01:28:20;20.90;;;5.88;;
60372;SDS011;46216;52.220;5.134;2022-12-07T01:30:54;21.27;;;5.85;;
60372;SDS011;46216;52.220;5.134;2022-12-07T01:33:28;23.45;;;6.07;;
60372;SDS011;46216;52.220;5.134;2022-12-07T01:35:54;17.60;;;5.38;;
60372;SDS011;46216;52.220;5.134;2022-12-07T01:38:25;21.27;;;5.90;;
60372;SDS011;46216;52.220;5.134;2022-12-07T01:40:54;23.90;;;5.68;;
60372;SDS011;46216;52.220;5.134;2022-12-07T01:43:20;15.52;;;4.60;;
60372;SDS011;46216;52.220;5.134;2022-12-07T01:45:48;13.63;;;4.15;;
60372;SDS011;46216;52.220;5.134;2022-12-07T01:48:14;12.50;;;4.18;;
60372;SDS011;46216;52.220;5.134;2022-12-07T01:50:43;7.07;;;2.95;;
60372;SDS011;46216;52.220;5.134;2022-12-07T01:53:13;9.60;;;3.22;;
60372;SDS011;46216;52.220;5.134;2022-12-07T01:55:40;12.18;;;3.20;;
60372;SDS011;46216;52.220;5.134;2022-12-07T01:58:09;9.35;;;2.90;;
60372;SDS011;46216;52.220;5.134;2022-12-07T02:00:36;13.00;;;2.58;;
60372;SDS011;46216;52.220;5.134;2022-12-07T02:05:33;7.78;;;2.30;;
60372;SDS011;46216;52.220;5.134;2022-12-07T02:08:00;9.15;;;2.38;;
60372;SDS011;46216;52.220;5.134;2022-12-07T02:10:28;9.38;;;2.33;;
60372;SDS011;46216;52.220;5.134;2022-12-07T02:12:56;8.80;;;2.15;;
60372;SDS011;46216;52.220;5.134;2022-12-07T02:18:25;7.72;;;2.22;;
60372;SDS011;46216;52.220;5.134;2022-12-07T02:21:13;8.63;;;2.20;;
60372;SDS011;46216;52.220;5.134;2022-12-07T02:26:48;10.45;;;1.95;;
60372;SDS011;46216;52.220;5.134;2022-12-07T02:31:55;6.05;;;1.90;;
60372;SDS011;46216;52.220;5.134;2022-12-07T02:34:39;9.07;;;1.85;;
60372;SDS011;46216;52.220;5.134;2022-12-07T02:37:23;5.60;;;1.73;;
60372;SDS011;46216;52.220;5.134;2022-12-07T02:40:01;9.98;;;2.10;;
60372;SDS011;46216;52.220;5.134;2022-12-07T02:42:34;7.97;;;2.05;;
60372;SDS011;46216;52.220;5.134;2022-12-07T02:45:03;8.20;;;2.10;;
60372;SDS011;46216;52.220;5.134;2022-12-07T02:47:31;7.80;;;2.28;;
60372;SDS011;46216;52.220;5.134;2022-12-07T02:49:59;7.72;;;2.35;;
60372;SDS011;46216;52.220;5.134;2022-12-07T02:52:24;7.72;;;2.20;;
60372;SDS011;46216;52.220;5.134;2022-12-07T02:54:50;16.10;;;2.75;;
60372;SDS011;46216;52.220;5.134;2022-12-07T02:57:32;12.25;;;2.53;;
60372;SDS011;46216;52.220;5.134;2022-12-07T03:00:08;11.38;;;2.30;;
60372;SDS011;46216;52.220;5.134;2022-12-07T03:02:38;6.07;;;1.70;;
60372;SDS011;46216;52.220;5.134;2022-12-07T03:13:56;6.05;;;2.00;;
60372;SDS011;46216;52.220;5.134;2022-12-07T03:16:27;10.30;;;1.60;;
60372;SDS011;46216;52.220;5.134;2022-12-07T03:18:59;9.75;;;1.92;;
60372;SDS011;46216;52.220;5.134;2022-12-07T03:21:29;11.35;;;1.80;;
60372;SDS011;46216;52.220;5.134;2022-12-07T03:23:58;5.22;;;1.38;;
60372;SDS011;46216;52.220;5.134;2022-12-07T03:26:30;7.85;;;1.80;;
60372;SDS011;46216;52.220;5.134;2022-12-07T03:29:00;6.15;;;1.45;;
60372;SDS011;46216;52.220;5.134;2022-12-07T03:31:33;8.98;;;1.60;;
60372;SDS011;46216;52.220;5.134;2022-12-07T03:34:10;11.55;;;2.13;;
60372;SDS011;46216;52.220;5.134;2022-12-07T03:39:26;5.20;;;1.92;;
60372;SDS011;46216;52.220;5.134;2022-12-07T03:42:00;3.92;;;1.73;;
60372;SDS011;46216;52.220;5.134;2022-12-07T03:44:30;7.18;;;2.10;;
60372;SDS011;46216;52.220;5.134;2022-12-07T03:47:13;9.32;;;1.88;;
60372;SDS011;46216;52.220;5.134;2022-12-07T03:49:49;4.60;;;1.70;;
60372;SDS011;46216;52.220;5.134;2022-12-07T03:52:32;6.05;;;1.77;;
60372;SDS011;46216;52.220;5.134;2022-12-07T03:57:52;5.63;;;1.88;;
60372;SDS011;46216;52.220;5.134;2022-12-07T04:00:21;6.90;;;2.13;;
60372;SDS011;46216;52.220;5.134;2022-12-07T04:02:47;6.50;;;2.10;;
60372;SDS011;46216;52.220;5.134;2022-12-07T04:05:12;9.57;;;2.30;;
60372;SDS011;46216;52.220;5.134;2022-12-07T04:07:38;7.82;;;1.90;;
60372;SDS011;46216;52.220;5.134;2022-12-07T04:10:05;7.15;;;2.38;;
60372;SDS011;46216;52.220;5.134;2022-12-07T04:12:30;5.97;;;2.58;;
60372;SDS011;46216;52.220;5.134;2022-12-07T04:14:56;7.00;;;1.90;;
60372;SDS011;46216;52.220;5.134;2022-12-07T04:17:21;4.38;;;1.58;;
60372;SDS011;46216;52.220;5.134;2022-12-07T04:19:46;9.43;;;2.33;;
60372;SDS011;46216;52.220;5.134;2022-12-07T04:22:12;8.25;;;2.00;;
60372;SDS011;46216;52.220;5.134;2022-12-07T04:24:38;6.88;;;1.98;;
60372;SDS011;46216;52.220;5.134;2022-12-07T04:27:03;7.57;;;2.00;;
60372;SDS011;46216;52.220;5.134;2022-12-07T04:29:29;5.85;;;1.90;;
60372;SDS011;46216;52.220;5.134;2022-12-07T04:31:54;6.20;;;1.52;;
60372;SDS011;46216;52.220;5.134;2022-12-07T04:34:19;9.32;;;1.60;;
60372;SDS011;46216;52.220;5.134;2022-12-07T04:36:45;9.68;;;1.80;;
60372;SDS011;46216;52.220;5.134;2022-12-07T04:39:17;8.45;;;1.35;;
60372;SDS011;46216;52.220;5.134;2022-12-07T04:41:48;8.90;;;1.52;;
60372;SDS011;46216;52.220;5.134;2022-12-07T04:44:14;9.57;;;1.60;;
60372;SDS011;46216;52.220;5.134;2022-12-07T04:46:40;7.13;;;1.30;;
60372;SDS011;46216;52.220;5.134;2022-12-07T04:49:05;7.72;;;1.60;;
60372;SDS011;46216;52.220;5.134;2022-12-07T04:51:31;9.45;;;1.30;;
60372;SDS011;46216;52.220;5.134;2022-12-07T04:53:56;4.43;;;1.50;;
60372;SDS011;46216;52.220;5.134;2022-12-07T04:56:22;8.05;;;1.52;;
60372;SDS011;46216;52.220;5.134;2022-12-07T04:58:48;8.30;;;1.40;;
60372;SDS011;46216;52.220;5.134;2022-12-07T05:01:14;5.10;;;1.13;;
60372;SDS011;46216;52.220;5.134;2022-12-07T05:03:41;10.70;;;1.50;;
60372;SDS011;46216;52.220;5.134;2022-12-07T05:06:07;6.70;;;1.58;;
60372;SDS011;46216;52.220;5.134;2022-12-07T05:08:33;8.45;;;1.50;;
60372;SDS011;46216;52.220;5.134;2022-12-07T05:10:59;9.57;;;1.70;;
60372;SDS011;46216;52.220;5.134;2022-12-07T05:13:26;8.98;;;1.88;;
60372;SDS011;46216;52.220;5.134;2022-12-07T05:15:51;13.07;;;2.42;;
60372;SDS011;46216;52.220;5.134;2022-12-07T05:18:16;9.80;;;2.80;;
60372;SDS011;46216;52.220;5.134;2022-12-07T05:20:42;11.50;;;2.72;;
60372;SDS011;46216;52.220;5.134;2022-12-07T05:23:08;9.43;;;2.42;;
60372;SDS011;46216;52.220;5.134;2022-12-07T05:25:33;7.68;;;2.03;;
60372;SDS011;46216;52.220;5.134;2022-12-07T05:27:59;7.53;;;2.10;;
60372;SDS011;46216;52.220;5.134;2022-12-07T05:30:26;11.55;;;2.00;;
60372;SDS011;46216;52.220;5.134;2022-12-07T05:32:51;5.68;;;1.92;;
60372;SDS011;46216;52.220;5.134;2022-12-07T05:35:17;13.30;;;2.53;;
60372;SDS011;46216;52.220;5.134;2022-12-07T05:37:43;8.77;;;2.03;;
60372;SDS011;46216;52.220;5.134;2022-12-07T05:40:09;6.78;;;1.80;;
60372;SDS011;46216;52.220;5.134;2022-12-07T05:42:36;12.55;;;2.72;;
60372;SDS011;46216;52.220;5.134;2022-12-07T05:45:03;8.70;;;1.75;;
60372;SDS011;46216;52.220;5.134;2022-12-07T05:47:29;8.30;;;2.35;;
60372;SDS011;46216;52.220;5.134;2022-12-07T05:49:54;7.45;;;2.40;;
60372;SDS011;46216;52.220;5.134;2022-12-07T05:52:20;10.93;;;2.20;;
60372;SDS011;46216;52.220;5.134;2022-12-07T05:54:46;8.00;;;1.83;;
60372;SDS011;46216;52.220;5.134;2022-12-07T05:57:11;14.50;;;2.30;;
60372;SDS011;46216;52.220;5.134;2022-12-07T05:59:36;9.07;;;2.35;;
60372;SDS011;46216;52.220;5.134;2022-12-07T06:02:03;15.07;;;2.30;;
60372;SDS011;46216;52.220;5.134;2022-12-07T06:04:32;11.55;;;2.17;;
60372;SDS011;46216;52.220;5.134;2022-12-07T06:06:59;5.38;;;2.10;;
60372;SDS011;46216;52.220;5.134;2022-12-07T06:09:26;11.77;;;2.20;;
60372;SDS011;46216;52.220;5.134;2022-12-07T06:11:52;11.05;;;2.33;;
60372;SDS011;46216;52.220;5.134;2022-12-07T06:14:37;7.00;;;2.13;;
60372;SDS011;46216;52.220;5.134;2022-12-07T06:17:02;13.15;;;2.42;;
60372;SDS011;46216;52.220;5.134;2022-12-07T06:19:28;13.30;;;2.53;;
60372;SDS011;46216;52.220;5.134;2022-12-07T06:21:54;10.88;;;2.40;;
60372;SDS011;46216;52.220;5.134;2022-12-07T06:24:19;8.25;;;2.40;;
60372;SDS011;46216;52.220;5.134;2022-12-07T06:26:45;10.00;;;2.20;;
60372;SDS011;46216;52.220;5.134;2022-12-07T06:29:11;9.30;;;2.08;;
60372;SDS011;46216;52.220;5.134;2022-12-07T06:31:37;11.95;;;2.38;;
60372;SDS011;46216;52.220;5.134;2022-12-07T06:34:04;12.38;;;2.47;;
60372;SDS011;46216;52.220;5.134;2022-12-07T06:36:31;12.98;;;4.30;;
60372;SDS011;46216;52.220;5.134;2022-12-07T06:38:57;15.55;;;3.72;;
60372;SDS011;46216;52.220;5.134;2022-12-07T06:41:22;14.70;;;3.33;;
60372;SDS011;46216;52.220;5.134;2022-12-07T06:43:48;11.85;;;2.30;;
60372;SDS011;46216;52.220;5.134;2022-12-07T06:46:14;8.77;;;2.45;;
60372;SDS011;46216;52.220;5.134;2022-12-07T06:48:40;10.90;;;2.72;;
60372;SDS011;46216;52.220;5.134;2022-12-07T06:51:06;11.07;;;2.58;;
60372;SDS011;46216;52.220;5.134;2022-12-07T06:53:32;14.82;;;2.65;;
60372;SDS011;46216;52.220;5.134;2022-12-07T06:55:57;13.80;;;2.60;;
60372;SDS011;46216;52.220;5.134;2022-12-07T06:58:22;14.82;;;2.72;;
60372;SDS011;46216;52.220;5.134;2022-12-07T07:00:48;8.93;;;2.50;;
60372;SDS011;46216;52.220;5.134;2022-12-07T07:03:14;14.20;;;2.80;;
60372;SDS011;46216;52.220;5.134;2022-12-07T07:05:40;16.02;;;3.45;;
60372;SDS011;46216;52.220;5.134;2022-12-07T07:08:05;12.38;;;3.35;;
60372;SDS011;46216;52.220;5.134;2022-12-07T07:10:30;10.73;;;2.65;;
60372;SDS011;46216;52.220;5.134;2022-12-07T07:12:56;15.20;;;2.95;;
60372;SDS011;46216;52.220;5.134;2022-12-07T07:15:21;9.23;;;2.60;;
60372;SDS011;46216;52.220;5.134;2022-12-07T07:17:47;18.33;;;5.88;;
60372;SDS011;46216;52.220;5.134;2022-12-07T07:20:12;16.73;;;3.08;;
60372;SDS011;46216;52.220;5.134;2022-12-07T07:22:37;11.90;;;3.08;;
60372;SDS011;46216;52.220;5.134;2022-12-07T07:25:03;15.52;;;2.90;;
60372;SDS011;46216;52.220;5.134;2022-12-07T07:27:28;8.30;;;2.33;;
60372;SDS011;46216;52.220;5.134;2022-12-07T07:29:55;6.93;;;1.95;;
60372;SDS011;46216;52.220;5.134;2022-12-07T07:32:20;9.95;;;2.38;;
60372;SDS011;46216;52.220;5.134;2022-12-07T07:34:47;8.60;;;2.42;;
60372;SDS011;46216;52.220;5.134;2022-12-07T07:37:12;8.82;;;2.33;;
60372;SDS011;46216;52.220;5.134;2022-12-07T07:39:37;11.80;;;2.80;;
60372;SDS011;46216;52.220;5.134;2022-12-07T07:42:03;7.03;;;2.70;;
60372;SDS011;46216;52.220;5.134;2022-12-07T07:44:29;9.00;;;2.28;;
60372;SDS011;46216;52.220;5.134;2022-12-07T07:46:54;6.18;;;2.30;;
60372;SDS011;46216;52.220;5.134;2022-12-07T07:49:19;6.30;;;2.38;;
60372;SDS011;46216;52.220;5.134;2022-12-07T07:51:45;12.10;;;2.83;;
60372;SDS011;46216;52.220;5.134;2022-12-07T07:54:10;7.32;;;2.50;;
60372;SDS011;46216;52.220;5.134;2022-12-07T07:56:36;9.95;;;2.40;;
60372;SDS011;46216;52.220;5.134;2022-12-07T07:59:01;15.82;;;2.70;;
60372;SDS011;46216;52.220;5.134;2022-12-07T08:01:26;12.15;;;2.80;;
60372;SDS011;46216;52.220;5.134;2022-12-07T08:03:51;12.05;;;2.70;;
60372;SDS011;46216;52.220;5.134;2022-12-07T08:06:17;11.45;;;2.80;;
60372;SDS011;46216;52.220;5.134;2022-12-07T08:08:42;9.38;;;2.58;;
60372;SDS011;46216;52.220;5.134;2022-12-07T08:11:08;11.00;;;2.25;;
60372;SDS011;46216;52.220;5.134;2022-12-07T08:13:34;9.10;;;2.05;;
60372;SDS011;46216;52.220;5.134;2022-12-07T08:16:07;10.18;;;2.45;;
60372;SDS011;46216;52.220;5.134;2022-12-07T08:18:37;11.93;;;2.53;;
60372;SDS011;46216;52.220;5.134;2022-12-07T08:21:04;7.68;;;2.28;;
60372;SDS011;46216;52.220;5.134;2022-12-07T08:23:31;11.25;;;2.35;;
60372;SDS011;46216;52.220;5.134;2022-12-07T08:26:00;11.27;;;2.40;;
60372;SDS011;46216;52.220;5.134;2022-12-07T08:28:26;6.30;;;2.08;;
60372;SDS011;46216;52.220;5.134;2022-12-07T08:30:52;14.63;;;2.67;;
60372;SDS011;46216;52.220;5.134;2022-12-07T08:33:23;13.07;;;2.33;;
60372;SDS011;46216;52.220;5.134;2022-12-07T08:35:48;7.43;;;2.58;;
60372;SDS011;46216;52.220;5.134;2022-12-07T08:38:13;9.77;;;2.63;;
60372;SDS011;46216;52.220;5.134;2022-12-07T08:40:39;8.02;;;2.10;;
60372;SDS011;46216;52.220;5.134;2022-12-07T08:43:04;11.60;;;2.30;;
60372;SDS011;46216;52.220;5.134;2022-12-07T08:45:29;11.07;;;2.45;;
60372;SDS011;46216;52.220;5.134;2022-12-07T08:47:59;12.23;;;2.83;;
60372;SDS011;46216;52.220;5.134;2022-12-07T08:50:28;8.82;;;2.40;;
60372;SDS011;46216;52.220;5.134;2022-12-07T08:52:56;6.75;;;2.17;;
60372;SDS011;46216;52.220;5.134;2022-12-07T08:55:23;8.98;;;2.60;;
60372;SDS011;46216;52.220;5.134;2022-12-07T08:57:49;6.55;;;1.98;;
60372;SDS011;46216;52.220;5.134;2022-12-07T09:00:15;13.52;;;2.50;;
60372;SDS011;46216;52.220;5.134;2022-12-07T09:02:44;8.57;;;2.40;;
60372;SDS011;46216;52.220;5.134;2022-12-07T09:05:10;6.07;;;1.98;;
60372;SDS011;46216;52.220;5.134;2022-12-07T09:07:36;9.45;;;2.03;;
60372;SDS011;46216;52.220;5.134;2022-12-07T09:10:04;9.35;;;2.15;;
60372;SDS011;46216;52.220;5.134;2022-12-07T09:12:30;12.52;;;2.50;;
60372;SDS011;46216;52.220;5.134;2022-12-07T09:14:55;15.13;;;3.10;;
60372;SDS011;46216;52.220;5.134;2022-12-07T09:17:21;14.38;;;3.33;;
60372;SDS011;46216;52.220;5.134;2022-12-07T09:19:46;16.92;;;3.60;;
60372;SDS011;46216;52.220;5.134;2022-12-07T09:22:12;14.85;;;3.58;;
60372;SDS011;46216;52.220;5.134;2022-12-07T09:24:38;11.23;;;2.80;;
60372;SDS011;46216;52.220;5.134;2022-12-07T09:27:03;11.77;;;3.53;;
60372;SDS011;46216;52.220;5.134;2022-12-07T09:29:29;12.63;;;3.70;;
60372;SDS011;46216;52.220;5.134;2022-12-07T09:31:54;9.65;;;2.70;;
60372;SDS011;46216;52.220;5.134;2022-12-07T09:34:19;10.48;;;3.28;;
60372;SDS011;46216;52.220;5.134;2022-12-07T09:36:45;6.97;;;2.15;;
60372;SDS011;46216;52.220;5.134;2022-12-07T09:39:10;7.15;;;2.38;;
60372;SDS011;46216;52.220;5.134;2022-12-07T09:41:42;11.13;;;2.28;;
60372;SDS011;46216;52.220;5.134;2022-12-07T09:44:27;8.95;;;2.20;;
60372;SDS011;46216;52.220;5.134;2022-12-07T09:46:53;10.52;;;2.35;;
60372;SDS011;46216;52.220;5.134;2022-12-07T09:49:20;8.98;;;2.30;;
60372;SDS011;46216;52.220;5.134;2022-12-07T09:51:55;7.38;;;2.10;;
60372;SDS011;46216;52.220;5.134;2022-12-07T09:54:25;8.43;;;2.10;;
60372;SDS011;46216;52.220;5.134;2022-12-07T09:56:50;7.53;;;1.90;;
60372;SDS011;46216;52.220;5.134;2022-12-07T09:59:17;10.63;;;2.53;;
60372;SDS011;46216;52.220;5.134;2022-12-07T10:01:43;11.30;;;2.42;;
60372;SDS011;46216;52.220;5.134;2022-12-07T10:04:13;12.20;;;3.15;;
60372;SDS011;46216;52.220;5.134;2022-12-07T10:06:42;11.45;;;2.63;;
60372;SDS011;46216;52.220;5.134;2022-12-07T10:09:08;13.32;;;2.55;;
60372;SDS011;46216;52.220;5.134;2022-12-07T10:14:30;9.00;;;2.38;;
60372;SDS011;46216;52.220;5.134;2022-12-07T10:16:57;11.52;;;2.00;;
60372;SDS011;46216;52.220;5.134;2022-12-07T10:19:24;9.70;;;2.17;;
60372;SDS011;46216;52.220;5.134;2022-12-07T10:22:04;11.80;;;2.22;;
60372;SDS011;46216;52.220;5.134;2022-12-07T10:24:34;8.57;;;2.95;;
60372;SDS011;46216;52.220;5.134;2022-12-07T10:27:02;9.60;;;2.20;;
60372;SDS011;46216;52.220;5.134;2022-12-07T10:29:31;6.82;;;1.95;;
60372;SDS011;46216;52.220;5.134;2022-12-07T10:32:03;6.22;;;2.40;;
60372;SDS011;46216;52.220;5.134;2022-12-07T10:34:32;7.75;;;2.25;;
60372;SDS011;46216;52.220;5.134;2022-12-07T10:42:51;5.00;;;2.05;;
60372;SDS011;46216;52.220;5.134;2022-12-07T10:45:14;7.05;;;1.88;;
60372;SDS011;46216;52.220;5.134;2022-12-07T10:53:27;6.07;;;2.03;;
60372;SDS011;46216;52.220;5.134;2022-12-07T11:01:50;8.43;;;1.75;;
60372;SDS011;46216;52.220;5.134;2022-12-07T11:16:15;5.50;;;1.60;;
60372;SDS011;46216;52.220;5.134;2022-12-07T11:22:06;4.40;;;1.20;;
60372;SDS011;46216;52.220;5.134;2022-12-07T11:28:00;6.03;;;1.40;;
60372;SDS011;46216;52.220;5.134;2022-12-07T11:30:28;3.75;;;1.35;;
60372;SDS011;46216;52.220;5.134;2022-12-07T11:33:09;7.75;;;1.45;;
60372;SDS011;46216;52.220;5.134;2022-12-07T11:38:31;4.03;;;1.50;;
60372;SDS011;46216;52.220;5.134;2022-12-07T11:41:06;5.80;;;1.40;;
60372;SDS011;46216;52.220;5.134;2022-12-07T11:43:50;4.05;;;1.20;;
60372;SDS011;46216;52.220;5.134;2022-12-07T11:46:19;5.20;;;1.65;;
60372;SDS011;46216;52.220;5.134;2022-12-07T11:48:52;5.18;;;1.48;;
60372;SDS011;46216;52.220;5.134;2022-12-07T11:51:27;10.25;;;2.00;;
60372;SDS011;46216;52.220;5.134;2022-12-07T11:54:02;4.05;;;1.52;;
60372;SDS011;46216;52.220;5.134;2022-12-07T11:56:37;3.88;;;1.42;;
60372;SDS011;46216;52.220;5.134;2022-12-07T12:04:54;11.07;;;2.17;;
60372;SDS011;46216;52.220;5.134;2022-12-07T12:07:27;12.48;;;2.58;;
60372;SDS011;46216;52.220;5.134;2022-12-07T12:10:00;8.88;;;2.30;;
60372;SDS011;46216;52.220;5.134;2022-12-07T12:20:49;10.50;;;2.80;;
60372;SDS011;46216;52.220;5.134;2022-12-07T12:25:47;11.43;;;2.35;;
60372;SDS011;46216;52.220;5.134;2022-12-07T12:33:35;9.05;;;1.58;;
60372;SDS011;46216;52.220;5.134;2022-12-07T12:46:58;3.55;;;1.00;;
60372;SDS011;46216;52.220;5.134;2022-12-07T12:54:40;4.28;;;1.42;;
60372;SDS011;46216;52.220;5.134;2022-12-07T12:57:31;3.40;;;0.90;;
60372;SDS011;46216;52.220;5.134;2022-12-07T12:59:58;2.97;;;1.20;;
60372;SDS011;46216;52.220;5.134;2022-12-07T13:04:56;3.85;;;1.38;;
60372;SDS011;46216;52.220;5.134;2022-12-07T13:13:01;8.27;;;1.83;;
60372;SDS011;46216;52.220;5.134;2022-12-07T13:15:41;6.25;;;1.10;;
60372;SDS011;46216;52.220;5.134;2022-12-07T13:18:52;5.18;;;1.20;;
60372;SDS011;46216;52.220;5.134;2022-12-07T13:21:02;3.65;;;1.20;;
60372;SDS011;46216;52.220;5.134;2022-12-07T13:23:38;9.43;;;1.27;;
60372;SDS011;46216;52.220;5.134;2022-12-07T13:26:38;4.43;;;1.40;;
60372;SDS011;46216;52.220;5.134;2022-12-07T13:31:42;4.68;;;0.90;;
60372;SDS011;46216;52.220;5.134;2022-12-07T13:34:35;6.05;;;1.25;;
60372;SDS011;46216;52.220;5.134;2022-12-07T13:39:51;8.02;;;1.50;;
60372;SDS011;46216;52.220;5.134;2022-12-07T13:42:19;5.30;;;1.15;;
60372;SDS011;46216;52.220;5.134;2022-12-07T13:44:51;2.97;;;0.90;;
60372;SDS011;46216;52.220;5.134;2022-12-07T13:49:55;3.55;;;0.90;;
60372;SDS011;46216;52.220;5.134;2022-12-07T13:52:22;4.38;;;1.05;;
60372;SDS011;46216;52.220;5.134;2022-12-07T13:54:56;4.88;;;0.68;;
60372;SDS011;46216;52.220;5.134;2022-12-07T13:57:26;3.13;;;0.73;;
60372;SDS011;46216;52.220;5.134;2022-12-07T13:59:53;3.45;;;1.00;;
60372;SDS011;46216;52.220;5.134;2022-12-07T14:02:20;3.30;;;0.98;;
60372;SDS011;46216;52.220;5.134;2022-12-07T14:05:06;7.35;;;0.90;;
60372;SDS011;46216;52.220;5.134;2022-12-07T14:10:27;3.03;;;0.88;;
60372;SDS011;46216;52.220;5.134;2022-12-07T14:12:52;1.95;;;0.95;;
60372;SDS011;46216;52.220;5.134;2022-12-07T14:15:23;3.42;;;0.95;;
60372;SDS011;46216;52.220;5.134;2022-12-07T14:17:52;1.98;;;0.90;;
60372;SDS011;46216;52.220;5.134;2022-12-07T14:20:32;3.88;;;1.00;;
60372;SDS011;46216;52.220;5.134;2022-12-07T14:23:19;3.30;;;1.10;;
60372;SDS011;46216;52.220;5.134;2022-12-07T14:25:49;3.80;;;0.90;;
60372;SDS011;46216;52.220;5.134;2022-12-07T14:28:29;3.95;;;1.20;;
60372;SDS011;46216;52.220;5.134;2022-12-07T14:30:59;4.57;;;0.75;;
60372;SDS011;46216;52.220;5.134;2022-12-07T14:33:25;5.30;;;1.08;;
60372;SDS011;46216;52.220;5.134;2022-12-07T14:35:51;4.97;;;1.10;;
60372;SDS011;46216;52.220;5.134;2022-12-07T14:38:21;3.03;;;0.82;;
60372;SDS011;46216;52.220;5.134;2022-12-07T14:40:47;2.78;;;0.90;;
60372;SDS011;46216;52.220;5.134;2022-12-07T14:43:14;2.83;;;0.90;;
60372;SDS011;46216;52.220;5.134;2022-12-07T14:45:41;3.70;;;1.10;;
60372;SDS011;46216;52.220;5.134;2022-12-07T14:48:07;8.68;;;2.25;;
60372;SDS011;46216;52.220;5.134;2022-12-07T14:50:41;4.25;;;1.27;;
60372;SDS011;46216;52.220;5.134;2022-12-07T14:53:10;5.55;;;1.40;;
60372;SDS011;46216;52.220;5.134;2022-12-07T14:55:38;6.03;;;1.25;;
60372;SDS011;46216;52.220;5.134;2022-12-07T14:58:04;5.20;;;1.30;;
60372;SDS011;46216;52.220;5.134;2022-12-07T15:00:29;3.67;;;0.90;;
60372;SDS011;46216;52.220;5.134;2022-12-07T15:02:55;5.32;;;1.17;;
60372;SDS011;46216;52.220;5.134;2022-12-07T15:05:21;4.32;;;1.20;;
60372;SDS011;46216;52.220;5.134;2022-12-07T15:07:46;4.95;;;1.17;;
60372;SDS011;46216;52.220;5.134;2022-12-07T15:10:17;5.15;;;1.33;;
60372;SDS011;46216;52.220;5.134;2022-12-07T15:12:45;5.80;;;1.55;;
60372;SDS011;46216;52.220;5.134;2022-12-07T15:15:12;4.05;;;1.30;;
60372;SDS011;46216;52.220;5.134;2022-12-07T15:17:38;6.38;;;1.52;;
60372;SDS011;46216;52.220;5.134;2022-12-07T15:20:04;6.18;;;1.75;;
60372;SDS011;46216;52.220;5.134;2022-12-07T15:22:29;8.45;;;1.85;;
60372;SDS011;46216;52.220;5.134;2022-12-07T15:24:56;7.43;;;2.05;;
60372;SDS011;46216;52.220;5.134;2022-12-07T15:27:22;10.60;;;4.57;;
60372;SDS011;46216;52.220;5.134;2022-12-07T15:29:47;12.10;;;4.68;;
60372;SDS011;46216;52.220;5.134;2022-12-07T15:32:12;10.57;;;4.82;;
60372;SDS011;46216;52.220;5.134;2022-12-07T15:34:37;7.22;;;2.80;;
60372;SDS011;46216;52.220;5.134;2022-12-07T15:37:04;6.63;;;2.28;;
60372;SDS011;46216;52.220;5.134;2022-12-07T15:39:29;5.65;;;2.85;;
60372;SDS011;46216;52.220;5.134;2022-12-07T15:41:54;4.97;;;2.67;;
60372;SDS011;46216;52.220;5.134;2022-12-07T15:44:20;5.72;;;1.83;;
60372;SDS011;46216;52.220;5.134;2022-12-07T15:47:04;5.32;;;2.50;;
60372;SDS011;46216;52.220;5.134;2022-12-07T15:49:29;3.75;;;1.90;;
60372;SDS011;46216;52.220;5.134;2022-12-07T15:51:55;3.85;;;1.50;;
60372;SDS011;46216;52.220;5.134;2022-12-07T15:54:21;6.65;;;2.55;;
60372;SDS011;46216;52.220;5.134;2022-12-07T15:56:49;5.20;;;2.60;;
60372;SDS011;46216;52.220;5.134;2022-12-07T15:59:14;5.65;;;1.70;;
60372;SDS011;46216;52.220;5.134;2022-12-07T16:01:40;6.72;;;2.45;;
60372;SDS011;46216;52.220;5.134;2022-12-07T16:04:05;4.25;;;2.30;;
60372;SDS011;46216;52.220;5.134;2022-12-07T16:06:31;6.20;;;2.20;;
60372;SDS011;46216;52.220;5.134;2022-12-07T16:08:56;4.90;;;2.10;;
60372;SDS011;46216;52.220;5.134;2022-12-07T16:11:22;3.70;;;1.98;;
60372;SDS011;46216;52.220;5.134;2022-12-07T16:13:47;6.15;;;1.70;;
60372;SDS011;46216;52.220;5.134;2022-12-07T16:16:14;3.05;;;1.40;;
60372;SDS011;46216;52.220;5.134;2022-12-07T16:18:44;5.63;;;1.55;;
60372;SDS011;46216;52.220;5.134;2022-12-07T16:21:11;4.38;;;1.50;;
60372;SDS011;46216;52.220;5.134;2022-12-07T16:23:36;7.20;;;1.70;;
60372;SDS011;46216;52.220;5.134;2022-12-07T16:26:23;7.85;;;2.45;;
60372;SDS011;46216;52.220;5.134;2022-12-07T16:28:48;11.10;;;3.42;;
60372;SDS011;46216;52.220;5.134;2022-12-07T16:31:17;5.65;;;2.83;;
60372;SDS011;46216;52.220;5.134;2022-12-07T16:33:44;9.55;;;3.55;;
60372;SDS011;46216;52.220;5.134;2022-12-07T16:36:10;3.90;;;2.60;;
60372;SDS011;46216;52.220;5.134;2022-12-07T16:38:38;4.38;;;2.40;;
60372;SDS011;46216;52.220;5.134;2022-12-07T16:41:07;6.35;;;2.38;;
60372;SDS011;46216;52.220;5.134;2022-12-07T16:43:33;5.80;;;2.25;;
60372;SDS011;46216;52.220;5.134;2022-12-07T16:46:00;9.15;;;2.20;;
60372;SDS011;46216;52.220;5.134;2022-12-07T16:48:26;5.60;;;2.20;;
60372;SDS011;46216;52.220;5.134;2022-12-07T16:50:51;7.18;;;2.00;;
60372;SDS011;46216;52.220;5.134;2022-12-07T16:53:18;5.45;;;2.38;;